sensor_id;sensor_type;location;lat;lon;timestamp;pressure;altitude;pressure_sealevel;temperature;humidity
61571;BME280;47463;49.884;10.010;2023-04-03T00:00:01;102980;;;1.2;83
61571;BME280;47463;49.884;10.010;2023-04-03T00:05:01;102980;;;1.2;84
61571;BME280;47463;49.884;10.010;2023-04-03T00:10:01;102990.00000000001;;;1.2;84
61571;BME280;47463;49.884;10.010;2023-04-03T00:15:01;102990.00000000001;;;1.4;83
61571;BME280;47463;49.884;10.010;2023-04-03T00:20:01;102980;;;1.4;83
61571;BME280;47463;49.884;10.010;2023-04-03T00:25:01;102980;;;1.5;83
61571;BME280;47463;49.884;10.010;2023-04-03T00:30:01;102980;;;1.5;83
61571;BME280;47463;49.884;10.010;2023-04-03T00:35:01;103000;;;1.6;83
61571;BME280;47463;49.884;10.010;2023-04-03T00:40:01;102990.00000000001;;;1.6;83
61571;BME280;47463;49.884;10.010;2023-04-03T00:45:33;103000;;;1.6;83
61571;BME280;47463;49.884;10.010;2023-04-03T00:50:01;103000;;;1.6;83
61571;BME280;47463;49.884;10.010;2023-04-03T00:55:03;103000;;;1.8;82
61571;BME280;47463;49.884;10.010;2023-04-03T01:00:02;102980;;;1.8;83
61571;BME280;47463;49.884;10.010;2023-04-03T01:05:01;102990.00000000001;;;1.8;82
61571;BME280;47463;49.884;10.010;2023-04-03T01:10:01;102990.00000000001;;;1.9;82
61571;BME280;47463;49.884;10.010;2023-04-03T01:15:02;102980;;;1.9;82
61571;BME280;47463;49.884;10.010;2023-04-03T01:20:07;102990.00000000001;;;1.9;82
61571;BME280;47463;49.884;10.010;2023-04-03T01:25:01;102990.00000000001;;;2;81
61571;BME280;47463;49.884;10.010;2023-04-03T01:30:01;102990.00000000001;;;2;81
61571;BME280;47463;49.884;10.010;2023-04-03T01:35:01;102990.00000000001;;;2;81
61571;BME280;47463;49.884;10.010;2023-04-03T01:40:01;102990.00000000001;;;2;81
61571;BME280;47463;49.884;10.010;2023-04-03T01:45:01;102990.00000000001;;;2;81
61571;BME280;47463;49.884;10.010;2023-04-03T01:50:01;102990.00000000001;;;2.1;81
61571;BME280;47463;49.884;10.010;2023-04-03T01:55:01;102990.00000000001;;;2.1;81
61571;BME280;47463;49.884;10.010;2023-04-03T02:00:01;103000;;;2.1;81
61571;BME280;47463;49.884;10.010;2023-04-03T02:05:01;102990.00000000001;;;2.1;81
61571;BME280;47463;49.884;10.010;2023-04-03T02:10:01;102990.00000000001;;;2.1;81
61571;BME280;47463;49.884;10.010;2023-04-03T02:15:01;102990.00000000001;;;2.1;82
61571;BME280;47463;49.884;10.010;2023-04-03T02:20:01;103000;;;2.1;82
61571;BME280;47463;49.884;10.010;2023-04-03T02:25:01;102990.00000000001;;;2.1;82
61571;BME280;47463;49.884;10.010;2023-04-03T02:30:01;102990.00000000001;;;2.2;83
61571;BME280;47463;49.884;10.010;2023-04-03T02:35:01;103000;;;2.2;83
61571;BME280;47463;49.884;10.010;2023-04-03T02:40:01;103000;;;2.1;84
61571;BME280;47463;49.884;10.010;2023-04-03T02:45:01;103000;;;2.2;84
61571;BME280;47463;49.884;10.010;2023-04-03T02:50:01;103000;;;2.2;84
61571;BME280;47463;49.884;10.010;2023-04-03T02:55:01;103000;;;2.2;85
61571;BME280;47463;49.884;10.010;2023-04-03T03:00:01;103009.99999999999;;;2.2;85
61571;BME280;47463;49.884;10.010;2023-04-03T03:05:01;103009.99999999999;;;2.3;85
61571;BME280;47463;49.884;10.010;2023-04-03T03:10:01;103009.99999999999;;;2.3;85
61571;BME280;47463;49.884;10.010;2023-04-03T03:15:01;103009.99999999999;;;2.3;85
61571;BME280;47463;49.884;10.010;2023-04-03T03:20:01;103009.99999999999;;;2.3;84
61571;BME280;47463;49.884;10.010;2023-04-03T03:25:01;103009.99999999999;;;2.3;84
61571;BME280;47463;49.884;10.010;2023-04-03T03:30:01;103009.99999999999;;;2.3;83
61571;BME280;47463;49.884;10.010;2023-04-03T03:35:01;103009.99999999999;;;2.2;83
61571;BME280;47463;49.884;10.010;2023-04-03T03:40:01;103009.99999999999;;;2.2;82
61571;BME280;47463;49.884;10.010;2023-04-03T03:45:01;103009.99999999999;;;2.1;82
61571;BME280;47463;49.884;10.010;2023-04-03T03:50:01;103009.99999999999;;;2;82
61571;BME280;47463;49.884;10.010;2023-04-03T03:55:01;103020;;;1.9;83
61571;BME280;47463;49.884;10.010;2023-04-03T04:00:01;103009.99999999999;;;1.8;83
61571;BME280;47463;49.884;10.010;2023-04-03T04:05:01;103009.99999999999;;;1.8;83
61571;BME280;47463;49.884;10.010;2023-04-03T04:10:01;103020;;;1.7;83
61571;BME280;47463;49.884;10.010;2023-04-03T04:15:01;103020;;;1.6;84
61571;BME280;47463;49.884;10.010;2023-04-03T04:20:01;103020;;;1.6;83
61571;BME280;47463;49.884;10.010;2023-04-03T04:25:01;103030;;;1.5;82
61571;BME280;47463;49.884;10.010;2023-04-03T04:30:01;103020;;;1.5;82
61571;BME280;47463;49.884;10.010;2023-04-03T04:35:01;103020;;;1.4;82
61571;BME280;47463;49.884;10.010;2023-04-03T04:40:01;103020;;;1.3;83
61571;BME280;47463;49.884;10.010;2023-04-03T04:45:01;103030;;;1.2;83
61571;BME280;47463;49.884;10.010;2023-04-03T04:50:01;103030;;;1;83
61571;BME280;47463;49.884;10.010;2023-04-03T04:55:01;103040.00000000001;;;0.9;83
61571;BME280;47463;49.884;10.010;2023-04-03T05:00:01;103030;;;0.8;84
61571;BME280;47463;49.884;10.010;2023-04-03T05:05:01;103040.00000000001;;;0.6;84
61571;BME280;47463;49.884;10.010;2023-04-03T05:10:01;103040.00000000001;;;0.5;85
61571;BME280;47463;49.884;10.010;2023-04-03T05:15:01;103059.99999999999;;;0.5;85
61571;BME280;47463;49.884;10.010;2023-04-03T05:20:01;103050;;;0.4;86
61571;BME280;47463;49.884;10.010;2023-04-03T05:25:01;103059.99999999999;;;0.3;86
61571;BME280;47463;49.884;10.010;2023-04-03T05:30:01;103059.99999999999;;;0.2;86
61571;BME280;47463;49.884;10.010;2023-04-03T05:35:01;103059.99999999999;;;0.3;86
61571;BME280;47463;49.884;10.010;2023-04-03T05:40:01;103070;;;0.2;86
61571;BME280;47463;49.884;10.010;2023-04-03T05:45:01;103070;;;0.2;86
61571;BME280;47463;49.884;10.010;2023-04-03T05:50:01;103080;;;0.3;86
61571;BME280;47463;49.884;10.010;2023-04-03T05:55:01;103080;;;0.5;86
61571;BME280;47463;49.884;10.010;2023-04-03T06:00:01;103090.00000000001;;;0.7;85
61571;BME280;47463;49.884;10.010;2023-04-03T06:05:01;103100;;;0.8;84
61571;BME280;47463;49.884;10.010;2023-04-03T06:10:01;103090.00000000001;;;1;84
61571;BME280;47463;49.884;10.010;2023-04-03T06:15:01;103090.00000000001;;;1.1;83
61571;BME280;47463;49.884;10.010;2023-04-03T06:20:01;103090.00000000001;;;1.3;82
61571;BME280;47463;49.884;10.010;2023-04-03T06:25:01;103080;;;1.4;82
61571;BME280;47463;49.884;10.010;2023-04-03T06:30:01;103100;;;1.5;81
61571;BME280;47463;49.884;10.010;2023-04-03T06:35:01;103100;;;1.8;81
61571;BME280;47463;49.884;10.010;2023-04-03T06:40:01;103100;;;1.7;80
61571;BME280;47463;49.884;10.010;2023-04-03T06:45:01;103100;;;1.9;80
61571;BME280;47463;49.884;10.010;2023-04-03T06:50:01;103109.99999999999;;;2;79
61571;BME280;47463;49.884;10.010;2023-04-03T06:55:01;103109.99999999999;;;2.3;79
61571;BME280;47463;49.884;10.010;2023-04-03T07:00:01;103109.99999999999;;;2.4;79
61571;BME280;47463;49.884;10.010;2023-04-03T07:05:01;103120;;;2.4;78
61571;BME280;47463;49.884;10.010;2023-04-03T07:10:01;103130;;;2.5;77
61571;BME280;47463;49.884;10.010;2023-04-03T07:15:01;103120;;;2.5;77
61571;BME280;47463;49.884;10.010;2023-04-03T07:20:01;103130;;;2.4;77
61571;BME280;47463;49.884;10.010;2023-04-03T07:25:01;103130;;;2.6;76
61571;BME280;47463;49.884;10.010;2023-04-03T07:30:01;103140.00000000001;;;2.6;76
61571;BME280;47463;49.884;10.010;2023-04-03T07:35:01;103140.00000000001;;;2.7;76
61571;BME280;47463;49.884;10.010;2023-04-03T07:40:01;103140.00000000001;;;2.9;75
61571;BME280;47463;49.884;10.010;2023-04-03T07:45:01;103140.00000000001;;;3;75
61571;BME280;47463;49.884;10.010;2023-04-03T07:50:01;103140.00000000001;;;3.1;75
61571;BME280;47463;49.884;10.010;2023-04-03T07:55:01;103150;;;3.2;74
61571;BME280;47463;49.884;10.010;2023-04-03T08:00:01;103150;;;3.3;74
61571;BME280;47463;49.884;10.010;2023-04-03T08:05:01;103140.00000000001;;;3;73
61571;BME280;47463;49.884;10.010;2023-04-03T08:10:01;103150;;;3.3;73
61571;BME280;47463;49.884;10.010;2023-04-03T08:15:01;103150;;;3.2;73
61571;BME280;47463;49.884;10.010;2023-04-03T08:20:01;103150;;;3.6;73
61571;BME280;47463;49.884;10.010;2023-04-03T08:25:01;103150;;;3.4;71
61571;BME280;47463;49.884;10.010;2023-04-03T08:30:01;103150;;;3.6;71
61571;BME280;47463;49.884;10.010;2023-04-03T08:35:01;103159.99999999999;;;3.4;70
61571;BME280;47463;49.884;10.010;2023-04-03T08:40:01;103150;;;3.4;71
61571;BME280;47463;49.884;10.010;2023-04-03T08:45:01;103150;;;3.3;71
61571;BME280;47463;49.884;10.010;2023-04-03T08:50:02;103159.99999999999;;;3.4;71
61571;BME280;47463;49.884;10.010;2023-04-03T08:55:01;103159.99999999999;;;3.4;70
61571;BME280;47463;49.884;10.010;2023-04-03T09:00:01;103159.99999999999;;;3.2;70
61571;BME280;47463;49.884;10.010;2023-04-03T09:05:01;103159.99999999999;;;3.5;69
61571;BME280;47463;49.884;10.010;2023-04-03T09:10:01;103170;;;3.7;67
61571;BME280;47463;49.884;10.010;2023-04-03T09:15:02;103170;;;3.7;68
61571;BME280;47463;49.884;10.010;2023-04-03T09:20:02;103159.99999999999;;;3.8;67
61571;BME280;47463;49.884;10.010;2023-04-03T09:25:02;103170;;;4;66
61571;BME280;47463;49.884;10.010;2023-04-03T09:30:01;103170;;;3.9;67
61571;BME280;47463;49.884;10.010;2023-04-03T09:35:01;103170;;;4;65
61571;BME280;47463;49.884;10.010;2023-04-03T09:40:01;103159.99999999999;;;3.9;60
61571;BME280;47463;49.884;10.010;2023-04-03T09:45:01;103159.99999999999;;;3.9;62
61571;BME280;47463;49.884;10.010;2023-04-03T09:50:10;103159.99999999999;;;4;62
61571;BME280;47463;49.884;10.010;2023-04-03T09:55:05;103170;;;4.2;62
61571;BME280;47463;49.884;10.010;2023-04-03T10:00:01;103150;;;4.3;61
61571;BME280;47463;49.884;10.010;2023-04-03T10:05:01;103159.99999999999;;;4.1;59
61571;BME280;47463;49.884;10.010;2023-04-03T10:10:02;103170;;;4.5;60
61571;BME280;47463;49.884;10.010;2023-04-03T10:15:01;103159.99999999999;;;4.4;59
61571;BME280;47463;49.884;10.010;2023-04-03T10:20:02;103159.99999999999;;;4.3;59
61571;BME280;47463;49.884;10.010;2023-04-03T10:25:02;103150;;;4.1;57
61571;BME280;47463;49.884;10.010;2023-04-03T10:30:16;103140.00000000001;;;4.1;56
61571;BME280;47463;49.884;10.010;2023-04-03T10:35:02;103130;;;4.2;56
61571;BME280;47463;49.884;10.010;2023-04-03T10:40:01;103150;;;4.2;56
61571;BME280;47463;49.884;10.010;2023-04-03T10:45:03;103150;;;4.1;57
61571;BME280;47463;49.884;10.010;2023-04-03T10:50:02;103150;;;3.6;54
61571;BME280;47463;49.884;10.010;2023-04-03T10:55:04;103140.00000000001;;;4.2;54
61571;BME280;47463;49.884;10.010;2023-04-03T11:00:01;103120;;;4.4;57
61571;BME280;47463;49.884;10.010;2023-04-03T11:05:02;103130;;;4.5;57
61571;BME280;47463;49.884;10.010;2023-04-03T11:10:02;103130;;;4.8;56
61571;BME280;47463;49.884;10.010;2023-04-03T11:15:01;103130;;;4.3;54
61571;BME280;47463;49.884;10.010;2023-04-03T11:20:03;103109.99999999999;;;4.7;52
61571;BME280;47463;49.884;10.010;2023-04-03T11:25:02;103109.99999999999;;;4.9;54
61571;BME280;47463;49.884;10.010;2023-04-03T11:30:01;103100;;;5;52
61571;BME280;47463;49.884;10.010;2023-04-03T11:35:01;103090.00000000001;;;4.8;53
61571;BME280;47463;49.884;10.010;2023-04-03T11:40:02;103090.00000000001;;;4.6;52
61571;BME280;47463;49.884;10.010;2023-04-03T11:45:34;103090.00000000001;;;4.6;52
61571;BME280;47463;49.884;10.010;2023-04-03T11:50:02;103100;;;4.8;51
61571;BME280;47463;49.884;10.010;2023-04-03T11:55:01;103090.00000000001;;;4.6;50
61571;BME280;47463;49.884;10.010;2023-04-03T12:00:01;103090.00000000001;;;4.9;51
61571;BME280;47463;49.884;10.010;2023-04-03T12:05:24;103080;;;5.2;51
61571;BME280;47463;49.884;10.010;2023-04-03T12:10:01;103080;;;5.1;50
61571;BME280;47463;49.884;10.010;2023-04-03T12:20:01;103070;;;4.9;49
61571;BME280;47463;49.884;10.010;2023-04-03T12:25:01;103070;;;5;49
61571;BME280;47463;49.884;10.010;2023-04-03T12:30:04;103059.99999999999;;;5.2;50
61571;BME280;47463;49.884;10.010;2023-04-03T12:35:04;103050;;;5.2;48
61571;BME280;47463;49.884;10.010;2023-04-03T12:40:03;103050;;;5.4;49
61571;BME280;47463;49.884;10.010;2023-04-03T12:45:03;103050;;;5.3;50
61571;BME280;47463;49.884;10.010;2023-04-03T12:50:01;103040.00000000001;;;5;49
61571;BME280;47463;49.884;10.010;2023-04-03T12:55:01;103040.00000000001;;;5;49
61571;BME280;47463;49.884;10.010;2023-04-03T13:00:04;103040.00000000001;;;5.3;50
61571;BME280;47463;49.884;10.010;2023-04-03T13:05:04;103040.00000000001;;;5.5;49
61571;BME280;47463;49.884;10.010;2023-04-03T13:10:02;103040.00000000001;;;5.5;49
61571;BME280;47463;49.884;10.010;2023-04-03T13:15:02;103040.00000000001;;;5.5;48
61571;BME280;47463;49.884;10.010;2023-04-03T13:20:18;103030;;;5.4;49
61571;BME280;47463;49.884;10.010;2023-04-03T13:25:03;103030;;;5.5;49
61571;BME280;47463;49.884;10.010;2023-04-03T13:30:01;103030;;;5.6;47
61571;BME280;47463;49.884;10.010;2023-04-03T13:35:01;103020;;;5.1;46
61571;BME280;47463;49.884;10.010;2023-04-03T13:40:02;103030;;;5.4;47
61571;BME280;47463;49.884;10.010;2023-04-03T13:45:09;103020;;;5.6;47
61571;BME280;47463;49.884;10.010;2023-04-03T13:50:03;103009.99999999999;;;5.5;45
61571;BME280;47463;49.884;10.010;2023-04-03T13:55:01;103000;;;5.8;46
61571;BME280;47463;49.884;10.010;2023-04-03T14:00:18;103009.99999999999;;;6.1;48
61571;BME280;47463;49.884;10.010;2023-04-03T14:05:01;103009.99999999999;;;5.7;47
61571;BME280;47463;49.884;10.010;2023-04-03T14:10:01;103000;;;5.7;47
61571;BME280;47463;49.884;10.010;2023-04-03T14:15:01;103000;;;5.9;47
61571;BME280;47463;49.884;10.010;2023-04-03T14:20:01;103009.99999999999;;;6.1;47
61571;BME280;47463;49.884;10.010;2023-04-03T14:25:01;103000;;;6.4;47
61571;BME280;47463;49.884;10.010;2023-04-03T14:30:01;102990.00000000001;;;5.8;48
61571;BME280;47463;49.884;10.010;2023-04-03T14:35:01;102990.00000000001;;;5.6;46
61571;BME280;47463;49.884;10.010;2023-04-03T14:40:01;103000;;;5.7;46
61571;BME280;47463;49.884;10.010;2023-04-03T14:45:01;102990.00000000001;;;6.3;46
61571;BME280;47463;49.884;10.010;2023-04-03T14:50:02;102970;;;6.1;46
61571;BME280;47463;49.884;10.010;2023-04-03T14:55:01;102970;;;5.9;45
61571;BME280;47463;49.884;10.010;2023-04-03T15:00:01;102970;;;6.2;46
61571;BME280;47463;49.884;10.010;2023-04-03T15:05:01;102959.99999999999;;;6.2;46
61571;BME280;47463;49.884;10.010;2023-04-03T15:10:02;102970;;;5.5;45
61571;BME280;47463;49.884;10.010;2023-04-03T15:15:01;102970;;;5.7;44
61571;BME280;47463;49.884;10.010;2023-04-03T15:20:01;102970;;;6.3;45
61571;BME280;47463;49.884;10.010;2023-04-03T15:25:01;102959.99999999999;;;6.2;44
61571;BME280;47463;49.884;10.010;2023-04-03T15:30:01;102959.99999999999;;;6.1;45
61571;BME280;47463;49.884;10.010;2023-04-03T15:35:01;102970;;;6;46
61571;BME280;47463;49.884;10.010;2023-04-03T15:40:01;102970;;;6;47
61571;BME280;47463;49.884;10.010;2023-04-03T15:45:01;102970;;;6.1;48
61571;BME280;47463;49.884;10.010;2023-04-03T15:50:01;102970;;;6;49
61571;BME280;47463;49.884;10.010;2023-04-03T15:55:01;102970;;;5.9;48
61571;BME280;47463;49.884;10.010;2023-04-03T16:00:01;102970;;;5.6;48
61571;BME280;47463;49.884;10.010;2023-04-03T16:05:01;102970;;;5.5;48
61571;BME280;47463;49.884;10.010;2023-04-03T16:10:01;102970;;;5.3;48
61571;BME280;47463;49.884;10.010;2023-04-03T16:15:01;102970;;;5.4;49
61571;BME280;47463;49.884;10.010;2023-04-03T16:20:01;102970;;;5.4;49
61571;BME280;47463;49.884;10.010;2023-04-03T16:25:01;102970;;;5.2;49
61571;BME280;47463;49.884;10.010;2023-04-03T16:30:01;102970;;;5.1;51
61571;BME280;47463;49.884;10.010;2023-04-03T16:35:01;102980;;;5.2;51
61571;BME280;47463;49.884;10.010;2023-04-03T16:40:01;102980;;;5.3;49
61571;BME280;47463;49.884;10.010;2023-04-03T16:45:01;102970;;;5.4;50
61571;BME280;47463;49.884;10.010;2023-04-03T16:50:01;102970;;;5;51
61571;BME280;47463;49.884;10.010;2023-04-03T16:55:01;102990.00000000001;;;5;51
61571;BME280;47463;49.884;10.010;2023-04-03T17:00:01;103000;;;4.6;52
61571;BME280;47463;49.884;10.010;2023-04-03T17:05:01;103000;;;4.5;52
61571;BME280;47463;49.884;10.010;2023-04-03T17:10:01;102990.00000000001;;;4.5;53
61571;BME280;47463;49.884;10.010;2023-04-03T17:15:01;103000;;;4.5;52
61571;BME280;47463;49.884;10.010;2023-04-03T17:20:01;103000;;;4.3;52
61571;BME280;47463;49.884;10.010;2023-04-03T17:25:01;103009.99999999999;;;4.2;54
61571;BME280;47463;49.884;10.010;2023-04-03T17:30:01;103009.99999999999;;;4.2;54
61571;BME280;47463;49.884;10.010;2023-04-03T17:35:01;103009.99999999999;;;4.2;54
61571;BME280;47463;49.884;10.010;2023-04-03T17:40:01;103000;;;4.2;54
61571;BME280;47463;49.884;10.010;2023-04-03T17:45:01;103009.99999999999;;;4;55
61571;BME280;47463;49.884;10.010;2023-04-03T17:50:01;103009.99999999999;;;3.9;55
61571;BME280;47463;49.884;10.010;2023-04-03T17:55:01;103020;;;3.7;56
61571;BME280;47463;49.884;10.010;2023-04-03T18:00:01;103030;;;3.6;54
61571;BME280;47463;49.884;10.010;2023-04-03T18:05:01;103030;;;3.2;57
61571;BME280;47463;49.884;10.010;2023-04-03T18:10:01;103040.00000000001;;;3.2;56
61571;BME280;47463;49.884;10.010;2023-04-03T18:15:01;103040.00000000001;;;2.9;58
61571;BME280;47463;49.884;10.010;2023-04-03T18:20:01;103040.00000000001;;;2.9;58
61571;BME280;47463;49.884;10.010;2023-04-03T18:25:01;103040.00000000001;;;2.9;58
61571;BME280;47463;49.884;10.010;2023-04-03T18:30:03;103050;;;2.9;57
61571;BME280;47463;49.884;10.010;2023-04-03T18:35:01;103050;;;2.9;56
61571;BME280;47463;49.884;10.010;2023-04-03T18:40:01;103059.99999999999;;;2.6;58
61571;BME280;47463;49.884;10.010;2023-04-03T18:45:01;103059.99999999999;;;2.4;59
61571;BME280;47463;49.884;10.010;2023-04-03T18:50:01;103059.99999999999;;;2;62
61571;BME280;47463;49.884;10.010;2023-04-03T18:55:01;103059.99999999999;;;1.8;64
61571;BME280;47463;49.884;10.010;2023-04-03T19:00:01;103070;;;1.7;65
61571;BME280;47463;49.884;10.010;2023-04-03T19:05:01;103070;;;1.6;66
61571;BME280;47463;49.884;10.010;2023-04-03T19:10:01;103080;;;1.7;66
61571;BME280;47463;49.884;10.010;2023-04-03T19:15:01;103070;;;1.7;64
61571;BME280;47463;49.884;10.010;2023-04-03T19:20:01;103080;;;1.9;62
61571;BME280;47463;49.884;10.010;2023-04-03T19:25:01;103090.00000000001;;;1.9;62
61571;BME280;47463;49.884;10.010;2023-04-03T19:30:01;103090.00000000001;;;1.8;62
61571;BME280;47463;49.884;10.010;2023-04-03T19:35:01;103090.00000000001;;;1.6;63
61571;BME280;47463;49.884;10.010;2023-04-03T19:40:01;103090.00000000001;;;1.3;65
61571;BME280;47463;49.884;10.010;2023-04-03T19:45:01;103090.00000000001;;;1.2;65
61571;BME280;47463;49.884;10.010;2023-04-03T19:50:01;103090.00000000001;;;1;66
61571;BME280;47463;49.884;10.010;2023-04-03T19:55:01;103109.99999999999;;;1;66
61571;BME280;47463;49.884;10.010;2023-04-03T20:00:01;103120;;;1;65
61571;BME280;47463;49.884;10.010;2023-04-03T20:05:01;103109.99999999999;;;0.9;66
61571;BME280;47463;49.884;10.010;2023-04-03T20:10:01;103109.99999999999;;;0.8;66
61571;BME280;47463;49.884;10.010;2023-04-03T20:15:01;103109.99999999999;;;0.7;67
61571;BME280;47463;49.884;10.010;2023-04-03T20:20:01;103109.99999999999;;;0.6;68
61571;BME280;47463;49.884;10.010;2023-04-03T20:25:01;103120;;;0.4;68
61571;BME280;47463;49.884;10.010;2023-04-03T20:30:01;103109.99999999999;;;0.4;68
61571;BME280;47463;49.884;10.010;2023-04-03T20:35:01;103109.99999999999;;;0.4;68
61571;BME280;47463;49.884;10.010;2023-04-03T20:40:01;103109.99999999999;;;0.3;68
61571;BME280;47463;49.884;10.010;2023-04-03T20:45:01;103109.99999999999;;;0.2;69
61571;BME280;47463;49.884;10.010;2023-04-03T20:50:01;103120;;;0.1;70
61571;BME280;47463;49.884;10.010;2023-04-03T20:55:01;103120;;;0.1;70
61571;BME280;47463;49.884;10.010;2023-04-03T21:00:01;103120;;;0.1;70
61571;BME280;47463;49.884;10.010;2023-04-03T21:05:01;103120;;;0.1;70
61571;BME280;47463;49.884;10.010;2023-04-03T21:20:01;103109.99999999999;;;0.1;69
61571;BME280;47463;49.884;10.010;2023-04-03T21:25:01;103109.99999999999;;;0.1;69
61571;BME280;47463;49.884;10.010;2023-04-03T21:30:01;103109.99999999999;;;0.1;69
61571;BME280;47463;49.884;10.010;2023-04-03T21:35:01;103120;;;-0.1;69
61571;BME280;47463;49.884;10.010;2023-04-03T21:40:01;103109.99999999999;;;-0.1;69
61571;BME280;47463;49.884;10.010;2023-04-03T21:45:01;103109.99999999999;;;0.1;68
61571;BME280;47463;49.884;10.010;2023-04-03T21:50:01;103109.99999999999;;;0.1;69
61571;BME280;47463;49.884;10.010;2023-04-03T21:55:01;103109.99999999999;;;-0.2;70
61571;BME280;47463;49.884;10.010;2023-04-03T22:00:01;103109.99999999999;;;-0.4;71
61571;BME280;47463;49.884;10.010;2023-04-03T22:05:01;103100;;;-0.6;72
61571;BME280;47463;49.884;10.010;2023-04-03T22:10:01;103100;;;-0.5;72
61571;BME280;47463;49.884;10.010;2023-04-03T22:15:01;103100;;;-0.5;71
61571;BME280;47463;49.884;10.010;2023-04-03T22:20:01;103100;;;-0.4;71
61571;BME280;47463;49.884;10.010;2023-04-03T22:25:01;103100;;;-0.4;70
61571;BME280;47463;49.884;10.010;2023-04-03T22:30:01;103109.99999999999;;;-0.2;69
61571;BME280;47463;49.884;10.010;2023-04-03T22:35:01;103109.99999999999;;;-0.2;68
61571;BME280;47463;49.884;10.010;2023-04-03T22:40:01;103100;;;-0.3;68
61571;BME280;47463;49.884;10.010;2023-04-03T22:45:01;103100;;;-0.3;69
61571;BME280;47463;49.884;10.010;2023-04-03T22:50:01;103109.99999999999;;;-0.1;67
61571;BME280;47463;49.884;10.010;2023-04-03T22:55:01;103100;;;-0.1;67
61571;BME280;47463;49.884;10.010;2023-04-03T23:00:01;103109.99999999999;;;-0.1;67
61571;BME280;47463;49.884;10.010;2023-04-03T23:05:01;103109.99999999999;;;-0.3;68
61571;BME280;47463;49.884;10.010;2023-04-03T23:10:01;103120;;;-0.4;69
61571;BME280;47463;49.884;10.010;2023-04-03T23:15:01;103109.99999999999;;;-0.5;69
61571;BME280;47463;49.884;10.010;2023-04-03T23:20:01;103120;;;-0.5;69
61571;BME280;47463;49.884;10.010;2023-04-03T23:25:01;103109.99999999999;;;-0.5;69
61571;BME280;47463;49.884;10.010;2023-04-03T23:30:01;103109.99999999999;;;-0.8;71
61571;BME280;47463;49.884;10.010;2023-04-03T23:35:01;103120;;;-0.8;71
61571;BME280;47463;49.884;10.010;2023-04-03T23:40:01;103109.99999999999;;;-0.8;71
61571;BME280;47463;49.884;10.010;2023-04-03T23:45:01;103120;;;-0.9;72
61571;BME280;47463;49.884;10.010;2023-04-03T23:50:01;103120;;;-1;72
61571;BME280;47463;49.884;10.010;2023-04-03T23:55:01;103109.99999999999;;;-1.1;73
